createdAt,value
2019-01-08T05:01:00.380Z,10.80
2019-01-08T05:02:00.249Z,3.90
2019-01-08T05:03:52.928Z,4.20
2019-01-08T05:04:52.803Z,4.10
2019-01-08T05:06:45.465Z,4.60
2019-01-08T05:07:45.346Z,3.20
2019-01-08T05:09:38.019Z,3.20
2019-01-08T05:10:37.888Z,3.90
2019-01-08T05:12:30.551Z,3.20
2019-01-08T05:13:30.432Z,3.40
2019-01-08T05:15:23.138Z,4.20
2019-01-08T05:16:22.995Z,4.30
2019-01-08T05:18:16.239Z,3.60
2019-01-08T05:19:16.134Z,4.20
2019-01-08T05:21:08.811Z,4.40
2019-01-08T05:22:08.683Z,4.70
2019-01-08T05:24:01.348Z,4.40
2019-01-08T05:25:01.251Z,4.10
2019-01-08T05:26:53.918Z,3.90
2019-01-08T05:27:53.789Z,4.70
2019-01-08T05:29:46.476Z,4.20
2019-01-08T05:30:46.334Z,4.60
2019-01-08T05:32:38.993Z,4.40
2019-01-08T05:33:38.883Z,5.30
2019-01-08T05:35:31.562Z,3.70
2019-01-08T05:36:31.433Z,4.10
2019-01-08T05:38:24.088Z,4.00
2019-01-08T05:39:23.972Z,4.20
2019-01-08T05:41:16.658Z,4.20
2019-01-08T05:42:16.524Z,3.70
2019-01-08T05:44:09.185Z,4.10
2019-01-08T05:45:09.082Z,3.80
2019-01-08T05:47:01.761Z,3.50
2019-01-08T05:48:01.636Z,4.20
2019-01-08T05:49:54.306Z,3.20
2019-01-08T05:50:54.182Z,4.00
2019-01-08T05:52:46.841Z,3.80
2019-01-08T05:53:46.730Z,3.50
2019-01-08T05:55:39.407Z,4.00
2019-01-08T05:56:39.279Z,5.70
2019-01-08T05:58:31.941Z,7.10
2019-01-08T05:59:31.829Z,8.60
2019-01-08T06:01:24.501Z,4.50
2019-01-08T06:02:24.373Z,4.80
2019-01-08T06:04:17.033Z,4.20
2019-01-08T06:05:16.921Z,4.10
2019-01-08T06:07:09.841Z,5.00
2019-01-08T06:08:09.470Z,4.70
2019-01-08T06:10:02.149Z,4.40
2019-01-08T06:11:02.039Z,4.50
2019-01-08T06:12:54.719Z,5.00
2019-01-08T06:13:54.586Z,4.60
2019-01-08T06:15:47.284Z,4.10
2019-01-08T06:16:47.295Z,4.50
2019-01-08T06:18:39.800Z,4.30
2019-01-08T06:19:39.689Z,3.60
2019-01-08T06:21:32.385Z,4.20
2019-01-08T06:22:32.249Z,4.40
2019-01-08T06:24:24.910Z,4.30
2019-01-08T06:25:24.798Z,4.30
2019-01-08T06:27:17.491Z,4.40
2019-01-08T06:28:17.365Z,4.40
2019-01-08T06:30:09.997Z,4.90
2019-01-08T06:31:09.889Z,4.60
2019-01-08T06:33:02.577Z,4.50
2019-01-08T06:34:02.482Z,4.80
2019-01-08T06:35:55.194Z,4.40
2019-01-08T06:36:55.032Z,4.40
2019-01-08T06:38:47.694Z,4.50
2019-01-08T06:39:47.574Z,4.30
2019-01-08T06:41:40.263Z,4.40
2019-01-08T06:42:40.141Z,4.90
2019-01-08T06:44:32.806Z,5.00
2019-01-08T06:45:32.697Z,6.20
2019-01-08T06:47:25.372Z,5.10
2019-01-08T06:48:25.245Z,5.10
2019-01-08T06:50:17.906Z,5.10
2019-01-08T06:51:17.790Z,4.80
2019-01-08T06:53:10.469Z,4.70
2019-01-08T06:54:10.354Z,4.10
2019-01-08T06:56:03.009Z,4.00
2019-01-08T06:57:02.903Z,4.80
2019-01-08T06:58:55.630Z,5.20
2019-01-08T06:59:55.493Z,4.60
2019-01-08T07:01:48.170Z,6.00
2019-01-08T07:02:47.995Z,4.80
2019-01-08T07:04:40.706Z,4.80
2019-01-08T07:05:40.580Z,4.30
2019-01-08T07:07:33.285Z,4.40
2019-01-08T07:08:33.146Z,4.60
2019-01-08T07:10:26.319Z,4.00
2019-01-08T07:11:26.201Z,5.00
2019-01-08T07:13:18.947Z,4.00
2019-01-08T07:14:18.793Z,4.60
2019-01-08T07:16:11.509Z,4.80
2019-01-08T07:17:11.373Z,4.30
2019-01-08T07:19:04.031Z,4.00
2019-01-08T07:20:03.879Z,4.90
2019-01-08T07:21:56.586Z,4.00
2019-01-08T07:22:56.447Z,4.50
2019-01-08T07:24:49.139Z,4.30
2019-01-08T07:25:49.011Z,4.00
2019-01-08T07:27:41.743Z,4.70
2019-01-08T07:28:41.594Z,4.50
2019-01-08T07:30:41.271Z,5.10
2019-01-08T07:31:34.137Z,4.70
2019-01-08T07:33:26.897Z,4.90
2019-01-08T07:34:26.787Z,5.30
2019-01-08T07:36:19.485Z,4.90
2019-01-08T07:37:19.338Z,5.00
2019-01-08T07:39:12.011Z,4.90
2019-01-08T07:40:11.883Z,4.60
2019-01-08T07:42:04.550Z,4.80
2019-01-08T07:43:04.428Z,5.20
2019-01-08T07:44:57.109Z,5.30
2019-01-08T07:45:56.979Z,5.00
2019-01-08T07:47:49.722Z,5.50
2019-01-08T07:48:49.580Z,5.40
2019-01-08T07:50:42.259Z,5.50
2019-01-08T07:51:42.154Z,5.40
2019-01-08T07:53:34.837Z,5.30
2019-01-08T07:54:35.897Z,6.10
2019-01-08T07:56:27.427Z,6.00
2019-01-08T07:57:27.268Z,5.60
2019-01-08T07:59:19.940Z,5.30
2019-01-08T08:00:19.810Z,5.30
2019-01-08T08:02:12.472Z,4.80
2019-01-08T08:03:12.373Z,4.80
2019-01-08T08:05:05.032Z,5.10
2019-01-08T08:06:04.901Z,5.30
2019-01-08T08:07:57.582Z,5.40
2019-01-08T08:08:57.449Z,5.50
2019-01-08T08:10:50.118Z,5.10
2019-01-08T08:11:49.995Z,5.10
2019-01-08T08:13:42.691Z,5.50
2019-01-08T08:14:42.594Z,5.10
2019-01-08T08:16:35.214Z,5.30
2019-01-08T08:17:35.095Z,5.60
2019-01-08T08:19:27.785Z,9.70
2019-01-08T08:20:27.655Z,5.20
2019-01-08T08:22:20.356Z,5.70
2019-01-08T08:23:20.224Z,4.30
2019-01-08T08:25:12.906Z,5.00
2019-01-08T08:26:12.780Z,4.90
2019-01-08T08:28:05.452Z,4.20
2019-01-08T08:29:05.392Z,4.90
2019-01-08T08:30:58.853Z,4.70
2019-01-08T08:31:57.885Z,4.20
2019-01-08T08:33:50.581Z,4.30
2019-01-08T08:34:50.446Z,4.70
2019-01-08T08:36:43.118Z,4.60
2019-01-08T08:37:43.007Z,4.00
2019-01-08T08:39:35.711Z,4.60
2019-01-08T08:40:35.589Z,4.50
2019-01-08T08:42:29.254Z,4.30
2019-01-08T08:43:29.134Z,5.00
2019-01-08T08:45:21.897Z,4.50
2019-01-08T08:46:21.676Z,4.80
2019-01-08T08:48:14.402Z,4.80
2019-01-08T08:49:14.249Z,4.80
2019-01-08T08:51:06.933Z,4.40
2019-01-08T08:52:06.803Z,4.80
2019-01-08T08:53:59.499Z,4.80
2019-01-08T08:54:59.389Z,4.80
2019-01-08T08:56:52.074Z,4.50
2019-01-08T08:57:51.913Z,4.70
2019-01-08T08:59:44.600Z,4.60
2019-01-08T09:00:44.471Z,4.60
2019-01-08T09:02:37.145Z,4.90
2019-01-08T09:03:37.032Z,5.00
2019-01-08T09:05:29.729Z,4.20
2019-01-08T09:06:29.590Z,3.90
2019-01-08T09:08:22.303Z,4.00
2019-01-08T09:09:22.165Z,4.30
2019-01-08T09:11:14.840Z,4.10
2019-01-08T09:12:14.715Z,3.90
2019-01-08T09:14:07.376Z,3.90
2019-01-08T09:15:07.263Z,3.80
2019-01-08T09:16:59.954Z,4.30
2019-01-08T09:17:59.822Z,4.10
2019-01-08T09:19:52.501Z,3.90
2019-01-08T09:20:52.370Z,4.20
2019-01-08T09:22:45.036Z,3.90
2019-01-08T09:23:44.915Z,4.40
2019-01-08T09:25:37.591Z,4.00
2019-01-08T09:26:37.464Z,4.00
2019-01-08T09:28:30.128Z,3.80
2019-01-08T09:29:31.748Z,3.80
2019-01-08T09:31:22.682Z,4.40
2019-01-08T09:32:22.553Z,4.30
2019-01-08T09:34:15.215Z,4.90
2019-01-08T09:35:15.110Z,4.70
2019-01-08T09:37:07.775Z,5.50
2019-01-08T09:38:07.650Z,4.80
2019-01-08T09:40:00.315Z,5.20
2019-01-08T09:41:00.190Z,6.60
2019-01-08T09:42:52.857Z,5.50
2019-01-08T09:43:52.741Z,6.10
2019-01-08T09:45:45.413Z,6.80
2019-01-08T09:46:45.281Z,6.20
2019-01-08T09:48:37.953Z,11.60
2019-01-08T09:49:37.825Z,14.10
2019-01-08T09:51:30.506Z,7.50
2019-01-08T09:52:30.369Z,7.20
2019-01-08T09:54:23.037Z,9.10
2019-01-08T09:55:22.929Z,6.90
2019-01-08T09:57:15.609Z,7.80
2019-01-08T09:58:15.474Z,6.50
2019-01-08T10:00:08.141Z,7.20
2019-01-08T10:01:08.027Z,7.70
2019-01-08T10:03:00.706Z,6.70
2019-01-08T10:04:00.576Z,7.30
2019-01-08T10:05:53.259Z,7.90
2019-01-08T10:06:53.120Z,7.00
2019-01-08T10:08:45.813Z,7.70
2019-01-08T10:09:45.684Z,8.70
2019-01-08T10:11:38.374Z,8.10
2019-01-08T10:12:38.240Z,6.80
2019-01-08T10:14:30.912Z,7.70
2019-01-08T10:15:30.787Z,8.50
2019-01-08T10:17:23.472Z,6.70
2019-01-08T10:18:23.338Z,7.30
2019-01-08T10:20:16.010Z,7.70
2019-01-08T10:21:15.888Z,7.50
2019-01-08T10:23:10.249Z,7.20
2019-01-08T10:24:08.441Z,6.80
2019-01-08T10:26:01.610Z,6.80
2019-01-08T10:27:01.478Z,7.40
2019-01-08T10:28:54.139Z,6.50
2019-01-08T10:29:54.070Z,6.80
2019-01-08T10:31:46.706Z,7.20
2019-01-08T10:32:46.583Z,7.90
2019-01-08T10:34:39.251Z,6.50
2019-01-08T10:35:39.133Z,6.60
2019-01-08T10:37:31.815Z,7.50
2019-01-08T10:38:31.694Z,7.00
2019-01-08T10:40:24.361Z,6.70
2019-01-08T10:41:24.251Z,7.50
2019-01-08T10:43:16.924Z,7.00
2019-01-08T10:44:16.803Z,6.60
2019-01-08T10:46:09.975Z,7.40
2019-01-08T10:47:09.859Z,7.60
2019-01-08T10:49:02.532Z,6.30
2019-01-08T10:50:02.400Z,6.90
2019-01-08T10:51:55.087Z,6.70
2019-01-08T10:52:54.955Z,6.30
2019-01-08T10:54:47.660Z,6.70
2019-01-08T10:55:47.559Z,6.70
2019-01-08T10:57:40.307Z,6.10
2019-01-08T10:58:40.108Z,7.10
2019-01-08T11:00:32.759Z,7.10
2019-01-08T11:01:40.262Z,6.90
2019-01-08T11:03:25.320Z,6.70
2019-01-08T11:04:25.228Z,5.70
2019-01-08T11:06:18.366Z,5.80
2019-01-08T11:07:18.257Z,5.00
2019-01-08T11:09:11.445Z,4.20
2019-01-08T11:10:11.313Z,4.70
2019-01-08T11:12:04.000Z,4.90
2019-01-08T11:13:03.872Z,4.80
2019-01-08T11:14:56.533Z,5.00
2019-01-08T11:15:56.421Z,6.20
2019-01-08T11:17:49.103Z,5.40
2019-01-08T11:18:48.984Z,5.80
2019-01-08T11:20:41.640Z,6.50
2019-01-08T11:21:41.531Z,5.50
2019-01-08T11:23:34.210Z,5.30
2019-01-08T11:24:34.076Z,6.00
2019-01-08T11:26:26.749Z,6.50
2019-01-08T11:27:26.636Z,6.30
2019-01-08T11:29:19.312Z,6.70
2019-01-08T11:30:19.182Z,6.40
2019-01-08T11:32:11.841Z,6.60
2019-01-08T11:33:11.814Z,6.50
2019-01-08T11:35:04.418Z,6.60
2019-01-08T11:36:04.285Z,6.60
2019-01-08T11:37:56.961Z,6.50
2019-01-08T11:38:56.836Z,6.80
2019-01-08T11:40:49.496Z,6.90
2019-01-08T11:41:49.393Z,6.10
2019-01-08T11:43:42.072Z,5.80
2019-01-08T11:44:41.939Z,6.70
2019-01-08T11:46:34.608Z,6.00
2019-01-08T11:47:34.495Z,6.20
2019-01-08T11:49:27.175Z,5.70
2019-01-08T11:50:27.047Z,6.30
2019-01-08T11:52:19.711Z,5.70
2019-01-08T11:53:19.596Z,6.40
2019-01-08T11:55:12.299Z,6.40
2019-01-08T11:56:12.234Z,6.80
2019-01-08T11:58:04.845Z,6.10
2019-01-08T11:59:04.786Z,6.20
2019-01-08T12:00:57.397Z,6.50
2019-01-08T12:01:57.686Z,6.60
2019-01-08T12:03:50.102Z,5.90
2019-01-08T12:04:49.836Z,6.20
2019-01-08T12:06:42.828Z,6.00
2019-01-08T12:07:42.450Z,6.10
2019-01-08T12:09:35.083Z,5.00
2019-01-08T12:10:34.958Z,5.10
2019-01-08T12:12:27.623Z,4.80
2019-01-08T12:13:27.518Z,5.30
2019-01-08T12:15:20.220Z,5.00
2019-01-08T12:16:20.084Z,5.60
2019-01-08T12:18:12.814Z,5.20
2019-01-08T12:19:12.634Z,5.50
2019-01-08T12:21:05.319Z,5.30
2019-01-08T12:22:05.191Z,5.80
2019-01-08T12:23:57.878Z,6.40
2019-01-08T12:24:57.748Z,6.10
2019-01-08T12:26:50.406Z,6.40
2019-01-08T12:27:50.294Z,5.60
2019-01-08T12:29:42.986Z,6.50
2019-01-08T12:30:42.851Z,6.60
2019-01-08T12:32:35.514Z,5.60
2019-01-08T12:33:35.397Z,7.00
2019-01-08T12:35:28.078Z,6.60
2019-01-08T12:36:27.953Z,6.20
2019-01-08T12:38:20.613Z,5.20
2019-01-08T12:39:20.518Z,4.80
2019-01-08T12:41:13.184Z,5.40
2019-01-08T12:42:13.056Z,4.90
2019-01-08T12:44:05.757Z,4.00
2019-01-08T12:45:05.617Z,4.00
2019-01-08T12:46:58.280Z,4.50
2019-01-08T12:47:58.156Z,4.00
2019-01-08T12:49:50.826Z,4.00
2019-01-08T12:50:50.697Z,4.60
2019-01-08T12:52:43.374Z,4.50
2019-01-08T12:53:43.258Z,4.50
2019-01-08T12:55:35.921Z,4.50
2019-01-08T12:56:35.790Z,5.00
2019-01-08T12:58:28.458Z,4.80
2019-01-08T12:59:28.345Z,5.10
2019-01-08T13:01:21.154Z,5.60
2019-01-08T13:02:20.895Z,5.10
2019-01-08T13:04:13.555Z,5.00
2019-01-08T13:05:13.440Z,4.90
2019-01-08T13:07:06.121Z,4.20
2019-01-08T13:08:05.992Z,5.10
2019-01-08T13:09:58.673Z,4.90
2019-01-08T13:10:58.550Z,5.00
2019-01-08T13:12:51.202Z,4.50
2019-01-08T13:13:51.087Z,4.80
2019-01-08T13:15:43.771Z,4.00
2019-01-08T13:16:44.063Z,4.00
2019-01-08T13:18:36.414Z,3.70
2019-01-08T13:19:36.197Z,3.10
2019-01-08T13:21:28.883Z,3.70
2019-01-08T13:22:28.753Z,3.80
2019-01-08T13:24:21.413Z,3.80
2019-01-08T13:25:21.318Z,4.80
2019-01-08T13:27:13.978Z,3.60
2019-01-08T13:28:13.859Z,4.10
2019-01-08T13:30:06.572Z,3.90
2019-01-08T13:31:06.450Z,4.40
2019-01-08T13:32:59.093Z,4.40
2019-01-08T13:33:59.809Z,3.60
2019-01-08T13:35:51.664Z,3.90
2019-01-08T13:36:51.546Z,3.70
2019-01-08T13:38:44.225Z,4.20
2019-01-08T13:39:44.090Z,3.80
2019-01-08T13:41:36.758Z,4.20
2019-01-08T13:42:36.637Z,4.60
2019-01-08T13:44:29.302Z,4.50
2019-01-08T13:45:29.190Z,4.30
2019-01-08T13:47:21.870Z,4.30
2019-01-08T13:48:21.741Z,4.70
2019-01-08T13:50:14.402Z,4.50
2019-01-08T13:51:14.292Z,5.40
2019-01-08T13:53:06.972Z,4.80
2019-01-08T13:54:06.837Z,4.70
2019-01-08T13:55:59.551Z,4.80
2019-01-08T13:56:59.416Z,4.70
2019-01-08T13:58:52.084Z,4.70
2019-01-08T13:59:51.978Z,4.30
2019-01-08T14:01:44.657Z,4.00
2019-01-08T14:02:44.525Z,4.30
2019-01-08T14:04:37.204Z,4.60
2019-01-08T14:05:37.098Z,4.30
2019-01-08T14:07:29.771Z,3.90
2019-01-08T14:08:29.642Z,4.20
2019-01-08T14:10:22.302Z,4.10
2019-01-08T14:11:22.185Z,4.10
2019-01-08T14:13:14.862Z,4.80
2019-01-08T14:14:14.729Z,4.90
2019-01-08T14:16:07.419Z,4.20
2019-01-08T14:17:07.280Z,4.60
2019-01-08T14:18:59.938Z,5.00
2019-01-08T14:19:59.826Z,5.00
2019-01-08T14:21:52.499Z,4.90
2019-01-08T14:22:52.374Z,5.40
2019-01-08T14:24:45.031Z,4.80
2019-01-08T14:25:44.932Z,4.70
2019-01-08T14:27:37.597Z,4.60
2019-01-08T14:28:37.462Z,4.70
2019-01-08T14:30:30.129Z,4.80
2019-01-08T14:31:30.046Z,4.10
2019-01-08T14:33:22.782Z,4.50
2019-01-08T14:34:22.596Z,4.50
2019-01-08T14:36:15.266Z,4.40
2019-01-08T14:37:15.127Z,5.00
2019-01-08T14:39:07.784Z,4.70
2019-01-08T14:40:07.686Z,5.10
2019-01-08T14:42:00.408Z,4.60
2019-01-08T14:43:00.273Z,4.80
2019-01-08T14:44:54.568Z,4.60
2019-01-08T14:45:53.962Z,4.10
2019-01-08T14:47:46.687Z,4.60
2019-01-08T14:48:46.540Z,4.40
2019-01-08T14:50:39.276Z,4.80
2019-01-08T14:51:39.086Z,4.90
2019-01-08T14:53:31.799Z,5.00
2019-01-08T14:54:31.669Z,5.10
2019-01-08T14:56:24.422Z,4.80
2019-01-08T14:57:24.234Z,4.60
2019-01-08T14:59:17.009Z,5.70
2019-01-08T15:00:16.832Z,5.20
2019-01-08T15:02:09.471Z,6.10
2019-01-08T15:03:09.335Z,6.60
2019-01-08T15:05:02.004Z,6.90
2019-01-08T15:06:01.883Z,5.10
2019-01-08T15:07:54.561Z,4.70
2019-01-08T15:08:54.430Z,5.20
2019-01-08T15:10:47.093Z,6.20
2019-01-08T15:11:46.974Z,5.20
2019-01-08T15:13:39.677Z,5.70
2019-01-08T15:14:39.539Z,5.60
2019-01-08T15:16:32.251Z,5.10
2019-01-08T15:17:32.214Z,5.70
2019-01-08T15:19:24.847Z,5.40
2019-01-08T15:20:24.703Z,5.70
2019-01-08T15:22:17.392Z,5.30
2019-01-08T15:23:17.268Z,5.60
2019-01-08T15:25:09.976Z,5.90
2019-01-08T15:26:09.821Z,5.30
2019-01-08T15:28:02.503Z,5.90
2019-01-08T15:29:02.376Z,5.80
2019-01-08T15:30:55.038Z,5.90
2019-01-08T15:31:54.909Z,5.30
2019-01-08T15:33:47.593Z,6.40
2019-01-08T15:34:47.456Z,6.40
2019-01-08T15:36:40.116Z,5.60
2019-01-08T15:37:40.010Z,5.70
2019-01-08T15:39:32.699Z,5.60
2019-01-08T15:40:32.564Z,5.70
2019-01-08T15:42:25.203Z,5.80
2019-01-08T15:43:25.095Z,6.70
2019-01-08T15:45:17.844Z,6.10
2019-01-08T15:46:17.633Z,7.00
2019-01-08T15:48:10.302Z,6.10
2019-01-08T15:49:10.189Z,5.70
2019-01-08T15:51:02.878Z,6.40
2019-01-08T15:52:02.733Z,5.80
2019-01-08T15:53:55.424Z,6.30
2019-01-08T15:54:55.334Z,6.70
2019-01-08T15:56:47.958Z,6.30
2019-01-08T15:57:47.841Z,6.40
2019-01-08T15:59:40.521Z,5.10
2019-01-08T16:00:40.388Z,5.80
2019-01-08T16:02:33.039Z,4.80
2019-01-08T16:03:32.927Z,4.80
2019-01-08T16:05:25.637Z,4.60
2019-01-08T16:06:25.481Z,4.80
2019-01-08T16:08:18.253Z,5.00
2019-01-08T16:09:18.133Z,4.80
2019-01-08T16:11:10.907Z,4.70
2019-01-08T16:12:10.745Z,4.10
2019-01-08T16:14:03.407Z,4.10
2019-01-08T16:15:03.286Z,4.20
2019-01-08T16:16:55.977Z,3.60
2019-01-08T16:17:55.840Z,4.60
2019-01-08T16:19:48.498Z,4.10
2019-01-08T16:20:48.396Z,4.10
2019-01-08T16:22:41.065Z,3.90
2019-01-08T16:23:40.936Z,4.30
2019-01-08T16:25:33.592Z,4.40
2019-01-08T16:26:33.507Z,4.30
2019-01-08T16:28:26.153Z,4.60
2019-01-08T16:29:26.029Z,5.50
2019-01-08T16:31:18.698Z,5.70
2019-01-08T16:32:18.579Z,4.60
2019-01-08T16:34:11.291Z,5.20
2019-01-08T16:35:11.151Z,5.60
2019-01-08T16:37:03.945Z,4.70
2019-01-08T16:38:03.701Z,4.30
2019-01-08T16:39:56.388Z,4.60
2019-01-08T16:40:56.252Z,4.60
2019-01-08T16:42:48.916Z,4.00
2019-01-08T16:43:48.851Z,4.50
2019-01-08T16:45:41.483Z,4.00
2019-01-08T16:46:41.375Z,3.60
2019-01-08T16:48:34.035Z,3.30
2019-01-08T16:49:33.923Z,3.40
2019-01-08T16:51:26.626Z,3.50
2019-01-08T16:52:26.490Z,3.20
2019-01-08T16:54:19.156Z,3.50
2019-01-08T16:55:19.063Z,3.40
2019-01-08T16:57:11.813Z,4.00
2019-01-08T16:58:11.593Z,3.90
2019-01-08T17:00:04.249Z,3.70
2019-01-08T17:01:04.150Z,3.30
2019-01-08T17:02:56.819Z,3.10
2019-01-08T17:03:56.706Z,3.60
2019-01-08T17:05:49.353Z,2.90
2019-01-08T17:06:49.248Z,3.20
2019-01-08T17:08:41.926Z,3.20
2019-01-08T17:09:41.781Z,2.70
2019-01-08T17:11:34.451Z,3.20
2019-01-08T17:12:34.329Z,3.00
2019-01-08T17:14:27.024Z,2.60
2019-01-08T17:15:26.878Z,2.50
2019-01-08T17:17:19.538Z,2.80
2019-01-08T17:18:19.428Z,2.80
2019-01-08T17:20:12.111Z,2.70
2019-01-08T17:21:11.971Z,2.90
2019-01-08T17:23:04.636Z,3.00
2019-01-08T17:24:04.525Z,3.40
2019-01-08T17:25:57.206Z,3.70
2019-01-08T17:26:57.078Z,4.00
2019-01-08T17:28:49.747Z,4.20
2019-01-08T17:29:49.618Z,4.40
2019-01-08T17:31:42.313Z,4.50
2019-01-08T17:32:42.174Z,5.00
2019-01-08T17:34:34.839Z,5.10
2019-01-08T17:35:34.758Z,5.30
2019-01-08T17:37:27.427Z,5.50
2019-01-08T17:38:27.276Z,5.70
2019-01-08T17:40:19.936Z,5.20
2019-01-08T17:41:19.826Z,5.80
2019-01-08T17:43:12.493Z,5.00
2019-01-08T17:44:12.363Z,5.80
2019-01-08T17:46:05.037Z,6.20
2019-01-08T17:47:04.924Z,5.70
2019-01-08T17:48:57.604Z,5.30
2019-01-08T17:49:57.471Z,5.50
2019-01-08T17:51:50.147Z,5.30
2019-01-08T17:52:50.015Z,5.30
2019-01-08T17:54:42.718Z,5.90
2019-01-08T17:55:42.573Z,5.20
2019-01-08T17:57:35.241Z,6.60
2019-01-08T17:58:35.153Z,5.90
2019-01-08T18:00:27.816Z,6.10
2019-01-08T18:01:27.673Z,5.80
2019-01-08T18:03:20.334Z,5.90
2019-01-08T18:04:20.221Z,5.90
2019-01-08T18:06:12.908Z,5.80
2019-01-08T18:07:12.766Z,5.90
2019-01-08T18:09:05.429Z,6.10
2019-01-08T18:10:05.325Z,5.10
2019-01-08T18:11:59.487Z,5.40
2019-01-08T18:12:59.052Z,5.10
2019-01-08T18:14:51.690Z,5.10
2019-01-08T18:15:51.573Z,5.20
2019-01-08T18:17:44.279Z,5.50
2019-01-08T18:18:44.132Z,5.40
2019-01-08T18:20:36.815Z,5.30
2019-01-08T18:21:36.686Z,6.20
2019-01-08T18:23:29.378Z,4.80
2019-01-08T18:24:29.235Z,5.50
2019-01-08T18:26:21.899Z,5.70
2019-01-08T18:27:21.811Z,5.30
2019-01-08T18:29:14.474Z,5.10
2019-01-08T18:30:14.349Z,5.80
2019-01-08T18:32:07.010Z,4.90
2019-01-08T18:33:06.896Z,5.20
2019-01-08T18:34:59.741Z,5.70
2019-01-08T18:35:59.445Z,5.90
2019-01-08T18:37:52.116Z,6.00
2019-01-08T18:38:52.001Z,5.60
2019-01-08T18:40:44.691Z,6.20
2019-01-08T18:41:44.556Z,5.80
2019-01-08T18:43:37.218Z,4.50
2019-01-08T18:44:37.103Z,4.40
2019-01-08T18:46:29.798Z,5.00
2019-01-08T18:47:29.658Z,4.60
2019-01-08T18:49:22.325Z,5.10
2019-01-08T18:50:22.204Z,4.10
2019-01-08T18:52:14.907Z,4.20
2019-01-08T18:53:14.753Z,4.50
2019-01-08T18:55:07.407Z,4.90
2019-01-08T18:56:07.298Z,4.40
2019-01-08T18:57:59.979Z,4.70
2019-01-08T18:58:59.863Z,4.60
2019-01-08T19:00:52.518Z,5.70
2019-01-08T19:01:52.401Z,5.80
2019-01-08T19:03:45.082Z,5.00
2019-01-08T19:04:44.979Z,4.80
2019-01-08T19:06:37.607Z,5.50
2019-01-08T19:07:37.483Z,5.40
2019-01-08T19:09:30.165Z,5.30
2019-01-08T19:10:30.032Z,4.90
2019-01-08T19:12:22.689Z,5.80
2019-01-08T19:13:22.578Z,5.90
2019-01-08T19:15:15.247Z,5.40
2019-01-08T19:16:15.113Z,5.70
2019-01-08T19:18:07.774Z,5.90
2019-01-08T19:19:07.662Z,5.60
2019-01-08T19:21:00.342Z,5.80
2019-01-08T19:22:00.224Z,5.40
2019-01-08T19:23:52.865Z,6.00
2019-01-08T19:24:52.868Z,5.90
2019-01-08T19:26:45.432Z,6.50
2019-01-08T19:27:45.298Z,5.80
2019-01-08T19:29:38.014Z,6.00
2019-01-08T19:30:37.838Z,6.40
2019-01-08T19:32:30.549Z,5.70
2019-01-08T19:33:30.413Z,6.10
2019-01-08T19:35:31.231Z,6.70
2019-01-08T19:36:23.037Z,6.10
2019-01-08T19:38:15.722Z,6.50
2019-01-08T19:39:15.595Z,6.00
2019-01-08T19:41:08.253Z,6.00
2019-01-08T19:42:08.139Z,6.70
2019-01-08T19:44:00.818Z,6.10
2019-01-08T19:45:00.682Z,6.40
2019-01-08T19:46:53.348Z,6.80
2019-01-08T19:47:53.253Z,7.20
2019-01-08T19:49:45.947Z,5.50
2019-01-08T19:50:45.780Z,6.10
2019-01-08T19:52:38.431Z,5.90
2019-01-08T19:53:38.321Z,5.40
2019-01-08T19:55:30.992Z,5.80
2019-01-08T19:56:30.861Z,5.60
2019-01-08T19:58:23.513Z,4.90
2019-01-08T19:59:23.939Z,5.10
2019-01-08T20:01:16.118Z,5.30
2019-01-08T20:02:15.952Z,5.50
2019-01-08T20:04:17.458Z,5.30
2019-01-08T20:05:08.504Z,5.10
2019-01-08T20:07:01.181Z,5.90
2019-01-08T20:08:01.041Z,5.80
2019-01-08T20:09:53.698Z,5.20
2019-01-08T20:10:53.618Z,6.40
2019-01-08T20:12:46.252Z,5.50
2019-01-08T20:13:46.120Z,6.40
2019-01-08T20:15:38.793Z,6.10
2019-01-08T20:16:38.676Z,5.60
2019-01-08T20:18:31.344Z,6.40
2019-01-08T20:19:31.261Z,5.70
2019-01-08T20:21:23.999Z,5.80
2019-01-08T20:22:23.895Z,6.00
2019-01-08T20:24:16.569Z,6.00
2019-01-08T20:25:16.445Z,5.40
2019-01-08T20:27:09.145Z,6.00
2019-01-08T20:28:09.123Z,6.70
2019-01-08T20:30:01.685Z,5.20
2019-01-08T20:31:01.552Z,6.10
2019-01-08T20:32:54.447Z,6.30
2019-01-08T20:33:54.337Z,5.90
2019-01-08T20:35:47.006Z,5.70
2019-01-08T20:36:46.868Z,6.10
2019-01-08T20:38:39.545Z,7.00
2019-01-08T20:39:39.426Z,6.30
2019-01-08T20:41:32.120Z,5.90
2019-01-08T20:42:31.978Z,5.90
2019-01-08T20:44:24.645Z,5.40
2019-01-08T20:45:24.559Z,5.30
2019-01-08T20:47:17.874Z,5.90
2019-01-08T20:48:17.079Z,5.60
2019-01-08T20:50:09.743Z,5.60
2019-01-08T20:51:09.629Z,4.90
2019-01-08T20:53:02.307Z,5.70
2019-01-08T20:54:02.184Z,6.00
2019-01-08T20:55:54.819Z,5.50
2019-01-08T20:56:54.702Z,5.60
2019-01-08T20:58:47.379Z,4.60
2019-01-08T20:59:47.257Z,4.90
2019-01-08T21:01:39.904Z,5.30
2019-01-08T21:02:39.793Z,5.30
2019-01-08T21:04:35.618Z,5.30
2019-01-08T21:05:32.341Z,5.00
2019-01-08T21:07:25.002Z,5.10
2019-01-08T21:08:24.889Z,5.10
2019-01-08T21:10:17.557Z,4.50
2019-01-08T21:11:17.430Z,5.00
2019-01-08T21:13:10.091Z,5.50
2019-01-08T21:14:09.971Z,4.60
2019-01-08T21:16:02.647Z,5.20
2019-01-08T21:17:02.526Z,5.60
2019-01-08T21:18:55.188Z,4.80
2019-01-08T21:19:55.068Z,4.80
2019-01-08T21:21:48.924Z,4.70
2019-01-08T21:22:47.612Z,4.80
2019-01-08T21:24:40.283Z,4.80
2019-01-08T21:25:40.156Z,4.30
2019-01-08T21:27:32.832Z,4.40
2019-01-08T21:28:32.710Z,4.60
2019-01-08T21:30:25.375Z,4.20
2019-01-08T21:31:25.253Z,4.30
2019-01-08T21:33:17.945Z,4.90
2019-01-08T21:34:17.801Z,4.50
2019-01-08T21:36:10.489Z,4.50
2019-01-08T21:37:10.370Z,4.70
2019-01-08T21:39:03.068Z,4.10
2019-01-08T21:40:02.927Z,4.10
2019-01-08T21:41:55.580Z,4.20
2019-01-08T21:42:55.460Z,3.50
2019-01-08T21:44:48.138Z,3.30
2019-01-08T21:45:48.005Z,3.40
2019-01-08T21:47:40.836Z,3.40
2019-01-08T21:48:40.548Z,3.40
2019-01-08T21:50:33.238Z,3.70
2019-01-08T21:51:33.095Z,3.80
2019-01-08T21:53:26.112Z,3.60
2019-01-08T21:54:25.996Z,3.40
2019-01-08T21:56:18.678Z,3.70
2019-01-08T21:57:18.549Z,3.30
2019-01-08T21:59:11.210Z,3.80
2019-01-08T22:00:11.094Z,3.30
2019-01-08T22:02:03.789Z,3.40
2019-01-08T22:03:03.650Z,3.20
2019-01-08T22:04:56.337Z,3.40
2019-01-08T22:05:56.220Z,3.60
2019-01-08T22:07:48.905Z,3.90
2019-01-08T22:08:48.808Z,3.20
2019-01-08T22:10:41.421Z,3.50
2019-01-08T22:11:41.305Z,3.00
2019-01-08T22:13:34.002Z,3.30
2019-01-08T22:14:33.859Z,3.30
2019-01-08T22:16:26.512Z,3.20
2019-01-08T22:17:26.399Z,3.10
2019-01-08T22:19:19.633Z,2.80
2019-01-08T22:20:19.495Z,3.80
2019-01-08T22:22:11.998Z,3.20
2019-01-08T22:23:11.881Z,3.10
2019-01-08T22:25:04.567Z,3.30
2019-01-08T22:26:04.447Z,2.70
2019-01-08T22:27:57.121Z,3.30
2019-01-08T22:28:57.255Z,3.70
2019-01-08T22:31:00.757Z,4.00
2019-01-08T22:32:00.631Z,3.40
2019-01-08T22:33:53.287Z,3.20
2019-01-08T22:35:01.818Z,3.70
2019-01-08T22:36:45.851Z,4.00
2019-01-08T22:37:45.732Z,4.10
2019-01-08T22:39:38.371Z,4.50
2019-01-08T22:40:38.260Z,4.80
2019-01-08T22:42:30.967Z,4.50
2019-01-08T22:43:30.843Z,4.30
2019-01-08T22:45:23.507Z,4.30
2019-01-08T22:46:23.386Z,4.60
2019-01-08T22:48:16.073Z,4.40
2019-01-08T22:49:15.943Z,4.60
2019-01-08T22:51:08.606Z,4.40
2019-01-08T22:52:08.501Z,4.60
2019-01-08T22:54:01.171Z,4.40
2019-01-08T22:55:01.034Z,4.30
2019-01-08T22:56:53.691Z,5.30
2019-01-08T22:57:53.571Z,4.00
2019-01-08T22:59:46.249Z,4.90
